Suhinici, Russia
Current Conditions -  °F | °C
As of 5:00 PM on Wednesday 28 Jan 2015 (Local Time) from UUBP Reporting Station
Light Snow Light Snow  
Wind Chill: 23°   Ceiling: 1100
Heat Index: 28°   Visibility: 3mi
Dew Point: 27°   Wind: 4mph
Humidity: 93%   Direction: 160°SSE
Pressure: 29.85"   Gusts: NA
Location:  54.1°N, 35.35°E
Report Text: UUBP 281400Z 16002MPS 5000 -SN BR OVC011 M02/M03 Q1011 NOSIG16850135 RMK QFE740
Loading
Personal Weather Stations






























Interactive Weather Map New forecast layout! Learn more

10-Day Weather Forecast

Advertisements
Track Severe Weather on mobile